createdAt,value
2022-08-12T00:01:12.774Z,4.18
2022-08-12T00:03:59.361Z,3.53
2022-08-12T00:06:47.648Z,5.43
2022-08-12T00:09:34.008Z,3.40
2022-08-12T00:12:19.840Z,8.18
2022-08-12T00:15:05.840Z,5.32
2022-08-12T00:17:52.398Z,6.13
2022-08-12T00:20:38.389Z,3.47
2022-08-12T00:23:24.793Z,7.93
2022-08-12T00:26:23.272Z,5.35
2022-08-12T00:29:12.537Z,4.78
2022-08-12T00:32:00.425Z,4.07
2022-08-12T00:34:50.839Z,3.70
2022-08-12T00:37:40.334Z,5.88
2022-08-12T00:40:28.613Z,3.50
2022-08-12T00:42:58.017Z,9.02
2022-08-12T00:45:25.588Z,4.32
2022-08-12T00:47:54.116Z,7.20
2022-08-12T00:50:23.613Z,5.45
2022-08-12T00:52:52.705Z,4.00
2022-08-12T00:55:21.409Z,3.33
2022-08-12T00:57:50.684Z,7.15
2022-08-12T01:00:22.901Z,6.35
2022-08-12T01:02:53.345Z,5.63
2022-08-12T01:05:41.437Z,4.38
2022-08-12T01:08:28.477Z,3.17
2022-08-12T01:11:15.500Z,4.93
2022-08-12T01:13:50.141Z,4.28
2022-08-12T01:16:23.208Z,4.72
2022-08-12T01:18:53.733Z,3.22
2022-08-12T01:21:27.697Z,6.20
2022-08-12T01:24:29.619Z,5.85
2022-08-12T01:26:59.958Z,5.70
2022-08-12T01:29:32.796Z,4.43
2022-08-12T01:32:05.447Z,6.57
2022-08-12T01:34:39.145Z,3.72
2022-08-12T01:37:08.862Z,5.90
2022-08-12T01:40:31.647Z,5.68
2022-08-12T01:42:47.701Z,6.85
2022-08-12T01:45:17.633Z,4.68
2022-08-12T01:48:08.417Z,3.50
2022-08-12T01:50:43.151Z,3.92
2022-08-12T01:55:43.313Z,6.47
2022-08-12T01:58:57.665Z,6.28
2022-08-12T02:01:34.864Z,6.95
2022-08-12T02:05:11.792Z,5.35
2022-08-12T02:11:29.132Z,7.15
2022-08-12T02:14:30.977Z,3.90
2022-08-12T02:17:19.793Z,5.00
2022-08-12T02:20:08.928Z,3.17
2022-08-12T02:22:43.140Z,6.57
2022-08-12T02:25:22.826Z,6.78
2022-08-12T02:27:52.990Z,4.38
2022-08-12T02:30:26.526Z,5.55
2022-08-12T02:33:10.603Z,6.40
2022-08-12T02:35:39.694Z,3.92
2022-08-12T02:38:10.754Z,6.05
2022-08-12T02:40:40.724Z,3.72
2022-08-12T02:43:57.966Z,4.25
2022-08-12T02:46:34.640Z,4.72
2022-08-12T02:49:26.928Z,4.53
2022-08-12T02:51:54.915Z,5.05
2022-08-12T02:54:24.608Z,6.32
2022-08-12T02:56:52.650Z,4.78
2022-08-12T02:59:23.707Z,5.10
2022-08-12T03:01:59.329Z,3.92
2022-08-12T03:04:46.997Z,4.15
2022-08-12T03:07:34.486Z,6.78
2022-08-12T03:10:17.842Z,4.93
2022-08-12T03:12:54.251Z,4.45
2022-08-12T03:15:24.705Z,4.63
2022-08-12T03:18:24.630Z,6.43
2022-08-12T03:20:57.928Z,5.13
2022-08-12T03:23:29.937Z,5.05
2022-08-12T03:26:03.288Z,5.05
2022-08-12T03:28:51.714Z,4.55
2022-08-12T03:31:26.010Z,4.07
2022-08-12T03:34:01.369Z,4.32
2022-08-12T03:36:36.218Z,6.78
2022-08-12T03:39:18.740Z,6.90
2022-08-12T03:42:21.867Z,6.20
2022-08-12T03:45:52.643Z,7.70
2022-08-12T03:48:39.960Z,5.43
2022-08-12T03:51:26.638Z,12.10
2022-08-12T03:54:13.143Z,6.28
2022-08-12T03:56:59.777Z,5.72
2022-08-12T03:59:45.789Z,7.10
2022-08-12T04:02:16.991Z,4.45
2022-08-12T04:04:47.376Z,5.55
2022-08-12T04:07:17.243Z,5.72
2022-08-12T04:09:47.018Z,5.38
2022-08-12T04:12:34.108Z,4.45
2022-08-12T04:15:02.822Z,5.82
2022-08-12T04:17:31.653Z,4.07
2022-08-12T04:19:59.718Z,6.65
2022-08-12T04:22:30.903Z,7.68
2022-08-12T04:25:02.947Z,8.82
2022-08-12T04:27:32.424Z,8.23
2022-08-12T04:30:30.176Z,7.07
2022-08-12T04:32:51.072Z,4.25
2022-08-12T04:35:20.953Z,6.72
2022-08-12T04:37:59.263Z,8.35
2022-08-12T04:40:31.126Z,8.90
2022-08-12T04:43:00.907Z,5.20
2022-08-12T04:45:29.190Z,6.43
2022-08-12T04:47:57.041Z,8.07
2022-08-12T04:50:35.324Z,5.90
2022-08-12T04:53:08.998Z,6.28
2022-08-12T04:55:42.583Z,6.13
2022-08-12T04:58:12.143Z,7.63
2022-08-12T05:00:42.269Z,11.20
2022-08-12T05:03:09.773Z,8.88
2022-08-12T05:05:40.636Z,6.45
2022-08-12T05:08:16.260Z,7.00
2022-08-12T05:10:48.780Z,5.95
2022-08-12T05:13:19.719Z,9.43
2022-08-12T05:16:03.839Z,5.95
2022-08-12T05:18:35.085Z,9.93
2022-08-12T05:21:09.188Z,8.88
2022-08-12T05:23:38.377Z,7.15
2022-08-12T05:26:07.309Z,9.95
2022-08-12T05:28:35.140Z,11.98
2022-08-12T05:31:02.752Z,11.05
2022-08-12T05:33:37.807Z,7.82
2022-08-12T05:36:14.967Z,11.25
2022-08-12T05:38:56.812Z,11.80
2022-08-12T05:41:26.755Z,14.02
2022-08-12T05:44:08.517Z,11.80
2022-08-12T05:46:37.243Z,12.65
2022-08-12T05:49:06.057Z,14.32
2022-08-12T05:51:40.762Z,9.93
2022-08-12T05:54:11.745Z,15.63
2022-08-12T05:56:41.245Z,12.43
2022-08-12T05:59:11.155Z,16.75
2022-08-12T06:02:10.082Z,13.82
2022-08-12T06:04:30.078Z,17.65
2022-08-12T06:06:58.278Z,13.38
2022-08-12T06:09:27.613Z,10.10
2022-08-12T06:12:05.780Z,14.90
2022-08-12T06:14:36.759Z,11.60
2022-08-12T06:17:05.805Z,9.85
2022-08-12T06:20:22.884Z,11.73
2022-08-12T06:22:20.865Z,10.40
2022-08-12T06:24:49.773Z,14.50
2022-08-12T06:27:18.627Z,10.27
2022-08-12T06:30:08.389Z,10.13
2022-08-12T06:32:34.795Z,11.48
2022-08-12T06:35:25.359Z,8.82
2022-08-12T06:37:57.605Z,6.50
2022-08-12T06:40:44.649Z,10.48
2022-08-12T06:43:14.161Z,9.73
2022-08-12T06:45:46.908Z,7.32
2022-08-12T06:48:14.997Z,6.90
2022-08-12T06:50:44.441Z,7.30
2022-08-12T06:53:12.437Z,7.38
2022-08-12T06:55:56.889Z,4.38
2022-08-12T06:58:30.642Z,8.30
2022-08-12T07:01:00.009Z,8.32
2022-08-12T07:03:28.727Z,6.32
2022-08-12T07:06:01.834Z,6.13
2022-08-12T07:08:31.769Z,5.18
2022-08-12T07:11:03.838Z,7.30
2022-08-12T07:14:11.164Z,6.55
2022-08-12T07:16:46.641Z,10.93
2022-08-12T07:19:14.634Z,8.63
2022-08-12T07:21:59.860Z,5.68
2022-08-12T07:24:30.616Z,9.23
2022-08-12T07:26:59.053Z,8.00
2022-08-12T07:29:59.989Z,9.18
2022-08-12T07:32:15.990Z,11.05
2022-08-12T07:34:43.516Z,8.18
2022-08-12T07:37:11.020Z,9.38
2022-08-12T07:39:50.783Z,10.20
2022-08-12T07:42:34.192Z,5.97
2022-08-12T07:45:02.133Z,8.52
2022-08-12T07:47:30.829Z,6.35
2022-08-12T07:50:03.514Z,7.63
2022-08-12T07:52:35.436Z,7.07
2022-08-12T07:55:04.432Z,7.50
2022-08-12T07:57:35.148Z,7.75
2022-08-12T08:00:05.514Z,8.13
2022-08-12T08:02:33.680Z,4.75
2022-08-12T08:05:01.321Z,5.57
2022-08-12T08:07:30.864Z,4.80
2022-08-12T08:10:05.047Z,6.40
2022-08-12T08:12:51.341Z,6.40
2022-08-12T08:15:20.210Z,4.57
2022-08-12T08:18:02.649Z,4.93
2022-08-12T08:20:33.912Z,3.90
2022-08-12T08:23:06.097Z,3.95
2022-08-12T08:25:37.672Z,7.65
2022-08-12T08:28:09.533Z,4.50
2022-08-12T08:30:42.385Z,8.63
2022-08-12T08:33:23.252Z,9.38
2022-08-12T08:36:00.260Z,5.13
2022-08-12T08:38:32.909Z,3.28
2022-08-12T08:42:17.302Z,4.75
2022-08-12T08:44:12.370Z,4.15
2022-08-12T08:46:41.072Z,5.82
2022-08-12T08:49:08.603Z,6.15
2022-08-12T08:51:37.251Z,5.43
2022-08-12T08:54:06.959Z,2.90
2022-08-12T08:56:42.783Z,3.80
2022-08-12T08:59:11.849Z,3.65
2022-08-12T09:01:40.944Z,3.47
2022-08-12T09:05:08.691Z,4.03
2022-08-12T09:07:17.234Z,3.38
2022-08-12T09:12:54.760Z,4.77
2022-08-12T09:15:35.447Z,4.10
2022-08-12T09:18:08.880Z,3.97
2022-08-12T09:20:38.785Z,4.35
2022-08-12T09:26:04.547Z,3.63
2022-08-12T09:28:33.404Z,4.57
2022-08-12T09:31:02.155Z,2.83
2022-08-12T09:34:28.171Z,4.68
2022-08-12T09:36:31.473Z,5.45
2022-08-12T09:40:05.339Z,3.13
2022-08-12T09:42:33.622Z,5.60
2022-08-12T09:45:23.319Z,5.13
2022-08-12T09:47:59.254Z,4.65
2022-08-12T09:50:28.183Z,8.05
2022-08-12T09:53:14.912Z,5.43
2022-08-12T09:56:03.798Z,5.00
2022-08-12T09:58:57.108Z,6.45
2022-08-12T10:01:24.714Z,5.82
2022-08-12T10:04:04.895Z,3.03
2022-08-12T10:06:36.225Z,3.45
2022-08-12T10:09:06.836Z,5.60
2022-08-12T10:12:10.749Z,7.05
2022-08-12T10:14:50.380Z,4.80
2022-08-12T10:17:22.838Z,6.30
2022-08-12T10:19:52.479Z,3.83
2022-08-12T10:22:36.722Z,3.28
2022-08-12T10:26:35.488Z,4.95
2022-08-12T10:28:38.323Z,4.97
2022-08-12T10:31:16.421Z,6.25
2022-08-12T10:33:55.559Z,2.80
2022-08-12T10:36:36.310Z,3.13
2022-08-12T10:40:00.244Z,4.68
2022-08-12T10:42:29.482Z,6.25
2022-08-12T10:45:01.698Z,3.55
2022-08-12T10:48:20.014Z,3.45
2022-08-12T10:50:33.750Z,6.28
2022-08-12T10:53:15.597Z,4.85
2022-08-12T10:55:51.113Z,5.43
2022-08-12T10:58:28.363Z,4.55
2022-08-12T11:03:01.518Z,4.65
2022-08-12T11:04:24.246Z,4.38
2022-08-12T11:07:06.814Z,4.25
2022-08-12T11:09:54.314Z,2.45
2022-08-12T11:12:56.971Z,3.38
2022-08-12T11:15:19.219Z,3.22
2022-08-12T11:17:53.187Z,3.00
2022-08-12T11:20:24.423Z,4.45
2022-08-12T11:23:03.892Z,4.22
2022-08-12T11:25:57.327Z,2.92
2022-08-12T11:28:33.849Z,3.50
2022-08-12T11:31:04.350Z,4.38
2022-08-12T11:34:06.275Z,5.20
2022-08-12T11:36:22.216Z,3.45
2022-08-12T11:38:51.298Z,2.95
2022-08-12T11:41:27.948Z,3.28
2022-08-12T11:44:30.668Z,3.05
2022-08-12T11:46:53.970Z,3.53
2022-08-12T11:49:31.136Z,3.20
2022-08-12T11:52:27.996Z,3.30
2022-08-12T11:54:54.128Z,4.53
2022-08-12T11:58:17.227Z,2.72
2022-08-12T12:02:58.031Z,4.88
2022-08-12T12:05:28.591Z,4.60
2022-08-12T12:08:38.489Z,7.32
2022-08-12T12:10:57.133Z,3.33
2022-08-12T12:14:07.782Z,7.03
2022-08-12T12:16:14.421Z,4.63
2022-08-12T12:18:42.673Z,3.60
2022-08-12T12:21:10.209Z,4.95
2022-08-12T12:23:38.381Z,8.00
2022-08-12T12:26:34.956Z,10.73
2022-08-12T12:29:03.435Z,8.55
2022-08-12T12:32:10.414Z,6.18
2022-08-12T12:34:30.263Z,5.68
2022-08-12T12:36:58.358Z,3.40
2022-08-12T12:39:28.872Z,7.55
2022-08-12T12:42:43.994Z,7.72
2022-08-12T12:44:53.597Z,5.80
2022-08-12T12:47:30.251Z,3.40
2022-08-12T12:49:58.049Z,3.53
2022-08-12T12:52:26.978Z,6.55
2022-08-12T12:54:58.488Z,6.65
2022-08-12T12:57:35.930Z,4.68
2022-08-12T13:00:15.859Z,8.93
2022-08-12T13:02:56.668Z,3.20
2022-08-12T13:05:42.742Z,3.30
2022-08-12T13:08:21.716Z,3.45
2022-08-12T13:11:01.490Z,6.57
2022-08-12T13:14:06.799Z,2.92
2022-08-12T13:16:21.515Z,5.72
2022-08-12T13:18:50.617Z,3.58
2022-08-12T13:21:36.472Z,6.25
2022-08-12T13:24:09.766Z,3.53
2022-08-12T13:26:40.114Z,3.35
2022-08-12T13:29:11.183Z,3.83
2022-08-12T13:32:01.974Z,6.13
2022-08-12T13:34:34.745Z,2.65
2022-08-12T13:37:09.665Z,2.72
2022-08-12T13:39:39.114Z,2.80
2022-08-12T13:42:13.633Z,4.90
2022-08-12T13:44:42.298Z,2.80
2022-08-12T13:47:18.653Z,5.57
2022-08-12T13:49:54.877Z,6.28
2022-08-12T13:52:24.007Z,3.72
2022-08-12T13:54:55.140Z,2.47
2022-08-12T13:57:26.366Z,3.20
2022-08-12T13:59:55.363Z,2.83
2022-08-12T14:02:27.877Z,3.88
2022-08-12T14:04:56.285Z,3.40
2022-08-12T14:07:26.080Z,4.57
2022-08-12T14:10:16.489Z,5.40
2022-08-12T14:12:54.219Z,6.60
2022-08-12T14:15:36.944Z,5.93
2022-08-12T14:18:09.548Z,4.82
2022-08-12T14:20:43.792Z,3.40
2022-08-12T14:26:06.817Z,2.35
2022-08-12T14:28:45.137Z,3.58
2022-08-12T14:31:31.854Z,6.25
2022-08-12T14:34:00.160Z,4.30
2022-08-12T14:36:32.651Z,4.10
2022-08-12T14:39:05.996Z,4.78
2022-08-12T14:41:37.020Z,3.33
2022-08-12T14:44:59.405Z,3.33
2022-08-12T14:47:07.820Z,2.65
2022-08-12T14:50:33.577Z,2.33
2022-08-12T14:53:13.504Z,2.60
2022-08-12T14:58:02.411Z,9.32
2022-08-12T15:00:52.449Z,2.53
2022-08-12T15:03:52.581Z,2.78
2022-08-12T15:06:39.798Z,4.75
2022-08-12T15:09:05.891Z,3.80
2022-08-12T15:11:55.069Z,3.40
2022-08-12T15:14:30.203Z,6.20
2022-08-12T15:17:00.710Z,3.63
2022-08-12T15:20:17.990Z,3.92
2022-08-12T15:22:35.332Z,8.43
2022-08-12T15:25:07.377Z,4.80
2022-08-12T15:28:05.564Z,5.13
2022-08-12T15:30:31.417Z,2.78
2022-08-12T15:32:59.593Z,3.55
2022-08-12T15:35:38.163Z,4.65
2022-08-12T15:38:19.717Z,2.88
2022-08-12T15:40:51.287Z,9.85
2022-08-12T15:43:27.331Z,4.35
2022-08-12T15:46:15.940Z,5.10
2022-08-12T15:48:47.146Z,4.97
2022-08-12T15:51:57.343Z,5.25
2022-08-12T15:54:34.955Z,5.63
2022-08-12T15:57:05.981Z,8.63
2022-08-12T16:00:03.739Z,5.97
2022-08-12T16:02:29.602Z,4.28
2022-08-12T16:04:58.556Z,5.20
2022-08-12T16:07:31.153Z,8.43
2022-08-12T16:10:05.426Z,4.65
2022-08-12T16:12:54.248Z,7.70
2022-08-12T16:15:26.356Z,7.78
2022-08-12T16:18:14.657Z,6.00
2022-08-12T16:20:46.660Z,4.57
2022-08-12T16:23:36.100Z,4.88
2022-08-12T16:26:15.199Z,5.93
2022-08-12T16:28:48.035Z,3.50
2022-08-12T16:31:23.268Z,5.25
2022-08-12T16:33:58.794Z,4.20
2022-08-12T16:36:29.592Z,4.75
2022-08-12T16:39:01.317Z,3.45
2022-08-12T16:41:37.903Z,4.18
2022-08-12T16:44:09.031Z,4.05
2022-08-12T16:46:38.010Z,5.95
2022-08-12T16:49:13.528Z,5.57
2022-08-12T16:51:46.393Z,4.80
2022-08-12T16:54:18.424Z,8.15
2022-08-12T16:56:50.861Z,3.63
2022-08-12T16:59:30.817Z,4.38
2022-08-12T17:02:31.279Z,6.00
2022-08-12T17:05:03.731Z,4.68
2022-08-12T17:07:37.826Z,7.93
2022-08-12T17:10:08.150Z,4.25
2022-08-12T17:12:37.752Z,3.92
2022-08-12T17:15:50.187Z,6.15
2022-08-12T17:18:39.041Z,7.10
2022-08-12T17:20:48.618Z,6.95
2022-08-12T17:23:18.135Z,12.30
2022-08-12T17:25:51.130Z,10.75
2022-08-12T17:28:21.288Z,6.68
2022-08-12T17:30:51.242Z,7.53
2022-08-12T17:33:33.418Z,8.13
2022-08-12T17:36:05.462Z,10.80
2022-08-12T17:38:36.660Z,5.78
2022-08-12T17:41:22.787Z,6.72
2022-08-12T17:43:58.846Z,6.70
2022-08-12T17:46:33.576Z,8.93
2022-08-12T17:49:18.805Z,4.43
2022-08-12T17:52:02.040Z,5.25
2022-08-12T17:54:34.614Z,5.22
2022-08-12T17:57:16.160Z,5.57
2022-08-12T17:59:48.889Z,6.75
2022-08-12T18:02:17.988Z,4.35
2022-08-12T18:05:05.776Z,9.18
2022-08-12T18:07:39.479Z,8.50
2022-08-12T18:10:08.468Z,10.07
2022-08-12T18:12:51.057Z,8.85
2022-08-12T18:15:26.664Z,6.85
2022-08-12T18:18:17.083Z,8.52
2022-08-12T18:20:47.154Z,5.20
2022-08-12T18:23:16.192Z,6.82
2022-08-12T18:26:17.755Z,4.90
2022-08-12T18:28:48.210Z,7.32
2022-08-12T18:31:44.711Z,6.53
2022-08-12T18:34:19.077Z,5.30
2022-08-12T18:36:50.316Z,7.03
2022-08-12T18:39:21.679Z,7.55
2022-08-12T18:41:51.271Z,7.03
2022-08-12T18:44:19.055Z,7.93
2022-08-12T18:46:57.272Z,5.28
2022-08-12T18:49:38.589Z,6.53
2022-08-12T18:52:08.147Z,5.55
2022-08-12T18:54:49.278Z,4.65
2022-08-12T18:58:07.041Z,4.57
2022-08-12T19:00:21.427Z,7.90
2022-08-12T19:02:53.110Z,6.00
2022-08-12T19:05:23.322Z,7.35
2022-08-12T19:08:01.304Z,6.80
2022-08-12T19:10:31.450Z,5.85
2022-08-12T19:13:23.500Z,7.35
2022-08-12T19:15:57.590Z,6.50
2022-08-12T19:18:30.225Z,5.53
2022-08-12T19:21:11.770Z,4.57
2022-08-12T19:23:43.771Z,8.23
2022-08-12T19:26:13.284Z,5.93
2022-08-12T19:28:41.728Z,9.15
2022-08-12T19:31:44.813Z,9.68
2022-08-12T19:38:03.021Z,6.05
2022-08-12T19:40:30.936Z,7.85
2022-08-12T19:43:20.281Z,8.05
2022-08-12T19:45:51.450Z,7.68
2022-08-12T19:48:21.791Z,6.50
2022-08-12T19:50:56.642Z,9.63
2022-08-12T19:53:27.763Z,12.35
2022-08-12T19:55:57.270Z,9.40
2022-08-12T19:58:26.733Z,8.82
2022-08-12T20:00:55.645Z,12.40
2022-08-12T20:03:38.606Z,6.05
2022-08-12T20:06:14.205Z,9.02
2022-08-12T20:08:49.245Z,8.48
2022-08-12T20:12:11.082Z,8.55
2022-08-12T20:14:17.970Z,14.98
2022-08-12T20:16:52.879Z,10.52
2022-08-12T20:19:53.167Z,13.20
2022-08-12T20:22:24.638Z,13.23
2022-08-12T20:25:00.931Z,13.23
2022-08-12T20:28:05.086Z,12.02
2022-08-12T20:30:52.555Z,15.60
2022-08-12T20:33:18.613Z,16.77
2022-08-12T20:36:06.396Z,12.45
2022-08-12T20:38:39.659Z,15.00
2022-08-12T20:41:17.726Z,18.80
2022-08-12T20:43:50.694Z,16.30
2022-08-12T20:46:21.208Z,11.70
2022-08-12T20:48:54.872Z,16.58
2022-08-12T20:51:50.865Z,12.30
2022-08-12T20:54:19.587Z,11.38
2022-08-12T20:56:48.171Z,12.50
2022-08-12T20:59:19.894Z,13.40
2022-08-12T21:01:49.421Z,12.23
2022-08-12T21:04:40.500Z,9.23
2022-08-12T21:07:13.853Z,9.30
2022-08-12T21:09:45.488Z,9.90
2022-08-12T21:12:31.340Z,12.85
2022-08-12T21:15:16.943Z,8.77
2022-08-12T21:18:09.350Z,9.75
2022-08-12T21:20:33.573Z,9.48
2022-08-12T21:23:05.765Z,10.25
2022-08-12T21:25:44.397Z,8.38
2022-08-12T21:28:14.675Z,8.25
2022-08-12T21:30:55.056Z,8.48
2022-08-12T21:33:32.012Z,10.93
2022-08-12T21:36:22.901Z,9.00
2022-08-12T21:39:01.963Z,9.15
2022-08-12T21:41:50.084Z,8.88
2022-08-12T21:45:44.074Z,9.43
2022-08-12T21:47:21.092Z,10.30
2022-08-12T21:50:02.575Z,8.48
2022-08-12T21:52:49.114Z,11.52
2022-08-12T21:55:19.486Z,10.13
2022-08-12T21:57:54.450Z,9.68
2022-08-12T22:00:35.068Z,8.10
2022-08-12T22:04:06.041Z,8.70
2022-08-12T22:06:20.367Z,9.13
2022-08-12T22:09:03.719Z,10.70
2022-08-12T22:11:42.468Z,10.52
2022-08-12T22:14:18.029Z,9.52
2022-08-12T22:16:53.599Z,9.98
2022-08-12T22:19:21.511Z,11.02
2022-08-12T22:21:53.288Z,9.27
2022-08-12T22:24:27.214Z,11.15
2022-08-12T22:27:14.519Z,9.93
2022-08-12T22:30:08.668Z,10.45
2022-08-12T22:32:51.307Z,11.02
2022-08-12T22:35:56.283Z,10.95
2022-08-12T22:38:25.032Z,8.98
2022-08-12T22:41:00.749Z,11.30
2022-08-12T22:44:00.168Z,10.10
2022-08-12T22:46:52.924Z,9.70
2022-08-12T22:49:37.305Z,9.43
2022-08-12T22:52:23.055Z,10.57
2022-08-12T22:55:02.853Z,8.68
2022-08-12T22:57:53.577Z,10.10
2022-08-12T23:00:27.154Z,10.05
2022-08-12T23:03:02.934Z,9.25
2022-08-12T23:05:57.762Z,9.30
2022-08-12T23:08:22.099Z,8.93
2022-08-12T23:10:50.573Z,8.18
2022-08-12T23:13:43.805Z,8.57
2022-08-12T23:16:27.866Z,8.80
2022-08-12T23:19:10.715Z,9.27
2022-08-12T23:22:06.141Z,8.52
2022-08-12T23:24:56.517Z,7.53
2022-08-12T23:27:50.846Z,9.38
2022-08-12T23:30:31.105Z,8.32
2022-08-12T23:33:01.383Z,8.35
2022-08-12T23:35:53.696Z,8.27
2022-08-12T23:38:30.781Z,8.68
2022-08-12T23:41:02.107Z,9.32
2022-08-12T23:43:39.349Z,10.57
2022-08-12T23:46:10.291Z,10.10
2022-08-12T23:48:38.777Z,7.80
2022-08-12T23:51:22.182Z,9.82
2022-08-12T23:54:00.357Z,9.00
2022-08-12T23:56:33.003Z,8.15
2022-08-12T23:59:07.072Z,8.98
